sensor_id;sensor_type;location;lat;lon;timestamp;temperature;humidity
11762;DHT22;5938;47.098;15.474;2024-03-23T00:54:24;6.90;99.90
11762;DHT22;5938;47.098;15.474;2024-03-23T00:58:27;6.70;99.90
11762;DHT22;5938;47.098;15.474;2024-03-23T01:02:29;6.60;99.90
11762;DHT22;5938;47.098;15.474;2024-03-23T01:06:32;6.40;99.90
11762;DHT22;5938;47.098;15.474;2024-03-23T01:10:36;6.30;99.90
11762;DHT22;5938;47.098;15.474;2024-03-23T01:14:38;6.20;99.90
11762;DHT22;5938;47.098;15.474;2024-03-23T01:18:40;6.10;99.90
11762;DHT22;5938;47.098;15.474;2024-03-23T01:22:43;6.00;99.90
11762;DHT22;5938;47.098;15.474;2024-03-23T01:26:47;5.90;99.90
11762;DHT22;5938;47.098;15.474;2024-03-23T01:30:50;5.80;99.90
11762;DHT22;5938;47.098;15.474;2024-03-23T01:34:52;5.70;99.90
11762;DHT22;5938;47.098;15.474;2024-03-23T01:38:55;5.60;99.90
11762;DHT22;5938;47.098;15.474;2024-03-23T01:43:01;5.50;99.90
11762;DHT22;5938;47.098;15.474;2024-03-23T01:47:06;5.40;99.90
11762;DHT22;5938;47.098;15.474;2024-03-23T01:51:09;5.40;99.90
11762;DHT22;5938;47.098;15.474;2024-03-23T01:55:12;5.40;99.90
11762;DHT22;5938;47.098;15.474;2024-03-23T01:59:16;5.40;99.90
11762;DHT22;5938;47.098;15.474;2024-03-23T02:03:25;5.20;99.90
11762;DHT22;5938;47.098;15.474;2024-03-23T02:07:27;5.20;99.90
11762;DHT22;5938;47.098;15.474;2024-03-23T02:11:30;5.10;99.90
11762;DHT22;5938;47.098;15.474;2024-03-23T02:15:33;5.10;99.90
11762;DHT22;5938;47.098;15.474;2024-03-23T02:19:36;5.20;99.90
11762;DHT22;5938;47.098;15.474;2024-03-23T02:23:40;5.30;99.90
11762;DHT22;5938;47.098;15.474;2024-03-23T02:27:42;5.30;99.90
11762;DHT22;5938;47.098;15.474;2024-03-23T02:31:45;5.30;99.90
11762;DHT22;5938;47.098;15.474;2024-03-23T02:35:47;5.30;99.90
11762;DHT22;5938;47.098;15.474;2024-03-23T02:39:51;5.20;99.90
11762;DHT22;5938;47.098;15.474;2024-03-23T02:43:53;5.10;99.90
11762;DHT22;5938;47.098;15.474;2024-03-23T02:47:56;5.00;99.90
11762;DHT22;5938;47.098;15.474;2024-03-23T02:51:58;5.00;99.90
11762;DHT22;5938;47.098;15.474;2024-03-23T02:56:02;4.90;99.90
11762;DHT22;5938;47.098;15.474;2024-03-23T03:00:06;4.80;99.90
11762;DHT22;5938;47.098;15.474;2024-03-23T03:04:09;4.60;99.90
11762;DHT22;5938;47.098;15.474;2024-03-23T03:08:11;4.50;99.90
11762;DHT22;5938;47.098;15.474;2024-03-23T03:12:14;4.50;99.90
11762;DHT22;5938;47.098;15.474;2024-03-23T03:16:16;4.40;99.90
11762;DHT22;5938;47.098;15.474;2024-03-23T03:20:19;4.30;99.90
11762;DHT22;5938;47.098;15.474;2024-03-23T03:24:23;4.30;99.90
11762;DHT22;5938;47.098;15.474;2024-03-23T03:28:26;4.20;99.90
11762;DHT22;5938;47.098;15.474;2024-03-23T03:32:32;4.10;99.90
11762;DHT22;5938;47.098;15.474;2024-03-23T03:36:35;4.00;99.90
11762;DHT22;5938;47.098;15.474;2024-03-23T03:40:37;3.90;99.90
11762;DHT22;5938;47.098;15.474;2024-03-23T03:44:41;3.90;99.90
11762;DHT22;5938;47.098;15.474;2024-03-23T03:48:43;3.90;99.90
11762;DHT22;5938;47.098;15.474;2024-03-23T03:52:48;3.90;99.90
11762;DHT22;5938;47.098;15.474;2024-03-23T03:56:50;3.90;99.90
11762;DHT22;5938;47.098;15.474;2024-03-23T04:00:54;3.90;99.90
11762;DHT22;5938;47.098;15.474;2024-03-23T04:04:56;4.00;99.90
11762;DHT22;5938;47.098;15.474;2024-03-23T04:08:59;4.00;99.90
11762;DHT22;5938;47.098;15.474;2024-03-23T04:13:01;4.00;99.90
11762;DHT22;5938;47.098;15.474;2024-03-23T04:17:07;4.10;99.90
11762;DHT22;5938;47.098;15.474;2024-03-23T04:21:09;4.20;99.90
11762;DHT22;5938;47.098;15.474;2024-03-23T04:25:13;4.30;99.90
11762;DHT22;5938;47.098;15.474;2024-03-23T04:29:15;4.30;99.90
11762;DHT22;5938;47.098;15.474;2024-03-23T04:33:19;4.30;99.90
11762;DHT22;5938;47.098;15.474;2024-03-23T04:37:22;4.30;99.90
11762;DHT22;5938;47.098;15.474;2024-03-23T04:41:25;4.30;99.90
11762;DHT22;5938;47.098;15.474;2024-03-23T04:45:28;4.20;99.90
11762;DHT22;5938;47.098;15.474;2024-03-23T04:49:31;4.20;99.90
11762;DHT22;5938;47.098;15.474;2024-03-23T04:53:34;4.30;99.90
11762;DHT22;5938;47.098;15.474;2024-03-23T04:57:36;4.40;99.90
11762;DHT22;5938;47.098;15.474;2024-03-23T05:01:39;4.50;99.90
11762;DHT22;5938;47.098;15.474;2024-03-23T05:05:44;4.60;99.90
11762;DHT22;5938;47.098;15.474;2024-03-23T05:09:46;4.80;99.90
11762;DHT22;5938;47.098;15.474;2024-03-23T05:13:49;4.90;99.90
11762;DHT22;5938;47.098;15.474;2024-03-23T05:17:52;5.00;99.90
11762;DHT22;5938;47.098;15.474;2024-03-23T05:21:56;5.10;99.90
11762;DHT22;5938;47.098;15.474;2024-03-23T05:25:59;5.10;99.90
11762;DHT22;5938;47.098;15.474;2024-03-23T05:30:01;5.30;99.90
11762;DHT22;5938;47.098;15.474;2024-03-23T05:34:04;5.50;99.90
11762;DHT22;5938;47.098;15.474;2024-03-23T05:38:08;5.70;99.90
11762;DHT22;5938;47.098;15.474;2024-03-23T05:42:11;5.80;99.90
11762;DHT22;5938;47.098;15.474;2024-03-23T05:46:14;5.90;99.90
11762;DHT22;5938;47.098;15.474;2024-03-23T05:50:17;6.10;99.90
11762;DHT22;5938;47.098;15.474;2024-03-23T05:54:20;6.30;99.90
11762;DHT22;5938;47.098;15.474;2024-03-23T05:58:23;6.50;99.90
11762;DHT22;5938;47.098;15.474;2024-03-23T06:02:27;6.70;99.90
11762;DHT22;5938;47.098;15.474;2024-03-23T06:06:30;6.80;99.90
11762;DHT22;5938;47.098;15.474;2024-03-23T06:10:34;6.80;99.90
11762;DHT22;5938;47.098;15.474;2024-03-23T06:14:36;7.10;99.90
11762;DHT22;5938;47.098;15.474;2024-03-23T06:18:39;7.30;99.90
11762;DHT22;5938;47.098;15.474;2024-03-23T06:22:42;7.50;99.90
11762;DHT22;5938;47.098;15.474;2024-03-23T06:26:46;7.70;99.90
11762;DHT22;5938;47.098;15.474;2024-03-23T06:30:48;7.70;99.90
11762;DHT22;5938;47.098;15.474;2024-03-23T06:34:51;8.10;99.90
11762;DHT22;5938;47.098;15.474;2024-03-23T06:38:53;8.10;99.90
11762;DHT22;5938;47.098;15.474;2024-03-23T06:42:57;8.50;99.90
11762;DHT22;5938;47.098;15.474;2024-03-23T06:47:00;8.80;99.90
11762;DHT22;5938;47.098;15.474;2024-03-23T06:51:04;9.10;99.90
11762;DHT22;5938;47.098;15.474;2024-03-23T06:55:07;9.30;99.90
11762;DHT22;5938;47.098;15.474;2024-03-23T06:59:12;9.50;99.90
11762;DHT22;5938;47.098;15.474;2024-03-23T07:03:14;9.40;99.90
11762;DHT22;5938;47.098;15.474;2024-03-23T07:07:17;9.60;99.90
11762;DHT22;5938;47.098;15.474;2024-03-23T07:11:19;9.70;99.90
11762;DHT22;5938;47.098;15.474;2024-03-23T07:15:23;9.90;99.90
11762;DHT22;5938;47.098;15.474;2024-03-23T07:19:26;10.10;99.90
11762;DHT22;5938;47.098;15.474;2024-03-23T07:23:29;10.10;99.90
11762;DHT22;5938;47.098;15.474;2024-03-23T07:27:31;10.40;99.90
11762;DHT22;5938;47.098;15.474;2024-03-23T07:31:36;10.70;99.90
11762;DHT22;5938;47.098;15.474;2024-03-23T07:35:39;11.00;99.70
11762;DHT22;5938;47.098;15.474;2024-03-23T07:39:42;11.10;98.60
11762;DHT22;5938;47.098;15.474;2024-03-23T07:43:53;11.20;98.60
11762;DHT22;5938;47.098;15.474;2024-03-23T07:48:08;11.40;98.20
11762;DHT22;5938;47.098;15.474;2024-03-23T07:52:10;11.80;97.50
11762;DHT22;5938;47.098;15.474;2024-03-23T07:56:12;11.90;96.20
11762;DHT22;5938;47.098;15.474;2024-03-23T08:00:16;12.00;96.30
11762;DHT22;5938;47.098;15.474;2024-03-23T08:04:20;12.30;95.90
11762;DHT22;5938;47.098;15.474;2024-03-23T08:08:23;12.80;94.40
11762;DHT22;5938;47.098;15.474;2024-03-23T08:12:25;13.00;94.10
11762;DHT22;5938;47.098;15.474;2024-03-23T08:16:28;13.40;94.00
11762;DHT22;5938;47.098;15.474;2024-03-23T08:20:31;13.50;93.20
11762;DHT22;5938;47.098;15.474;2024-03-23T08:24:34;13.90;92.70
11762;DHT22;5938;47.098;15.474;2024-03-23T08:28:37;13.90;92.10
11762;DHT22;5938;47.098;15.474;2024-03-23T08:32:39;14.50;90.70
11762;DHT22;5938;47.098;15.474;2024-03-23T08:36:44;14.80;90.70
11762;DHT22;5938;47.098;15.474;2024-03-23T08:40:46;14.90;90.20
11762;DHT22;5938;47.098;15.474;2024-03-23T08:44:49;15.00;90.00
11762;DHT22;5938;47.098;15.474;2024-03-23T08:48:51;15.20;88.10
11762;DHT22;5938;47.098;15.474;2024-03-23T08:52:55;15.60;87.80
11762;DHT22;5938;47.098;15.474;2024-03-23T08:56:57;15.90;88.00
11762;DHT22;5938;47.098;15.474;2024-03-23T09:01:04;17.30;83.00
11762;DHT22;5938;47.098;15.474;2024-03-23T09:05:07;19.00;80.70
11762;DHT22;5938;47.098;15.474;2024-03-23T09:09:11;20.80;74.40
11762;DHT22;5938;47.098;15.474;2024-03-23T09:13:13;22.50;72.40
11762;DHT22;5938;47.098;15.474;2024-03-23T09:17:17;23.70;67.20
11762;DHT22;5938;47.098;15.474;2024-03-23T09:21:20;24.80;64.50
11762;DHT22;5938;47.098;15.474;2024-03-23T09:25:24;25.50;59.90
11762;DHT22;5938;47.098;15.474;2024-03-23T09:29:26;24.80;61.30
11762;DHT22;5938;47.098;15.474;2024-03-23T09:33:29;25.40;60.20
11762;DHT22;5938;47.098;15.474;2024-03-23T09:37:31;25.20;60.80
11762;DHT22;5938;47.098;15.474;2024-03-23T09:41:35;22.70;63.90
11762;DHT22;5938;47.098;15.474;2024-03-23T09:45:39;20.30;71.10
11762;DHT22;5938;47.098;15.474;2024-03-23T09:49:41;18.60;73.30
11762;DHT22;5938;47.098;15.474;2024-03-23T09:53:44;18.00;76.60
11762;DHT22;5938;47.098;15.474;2024-03-23T09:57:47;19.70;74.10
11762;DHT22;5938;47.098;15.474;2024-03-23T10:01:51;21.40;70.00
11762;DHT22;5938;47.098;15.474;2024-03-23T10:06:04;20.90;71.80
11762;DHT22;5938;47.098;15.474;2024-03-23T10:10:11;22.30;67.70
11762;DHT22;5938;47.098;15.474;2024-03-23T10:14:29;24.30;64.00
11762;DHT22;5938;47.098;15.474;2024-03-23T10:18:31;23.90;63.60
11762;DHT22;5938;47.098;15.474;2024-03-23T10:22:37;25.00;59.10
11762;DHT22;5938;47.098;15.474;2024-03-23T10:26:39;24.90;60.10
11762;DHT22;5938;47.098;15.474;2024-03-23T10:30:43;24.20;59.90
11762;DHT22;5938;47.098;15.474;2024-03-23T10:34:46;24.40;60.20
11762;DHT22;5938;47.098;15.474;2024-03-23T10:38:50;25.90;57.00
11762;DHT22;5938;47.098;15.474;2024-03-23T10:42:55;24.30;58.50
11762;DHT22;5938;47.098;15.474;2024-03-23T10:47:04;24.30;58.40
11762;DHT22;5938;47.098;15.474;2024-03-23T10:51:08;25.10;56.60
11762;DHT22;5938;47.098;15.474;2024-03-23T10:55:12;26.20;56.70
11762;DHT22;5938;47.098;15.474;2024-03-23T10:59:15;26.70;53.80
11762;DHT22;5938;47.098;15.474;2024-03-23T11:03:36;27.80;53.90
11762;DHT22;5938;47.098;15.474;2024-03-23T11:07:39;28.10;50.80
11762;DHT22;5938;47.098;15.474;2024-03-23T11:11:51;28.00;51.10
11762;DHT22;5938;47.098;15.474;2024-03-23T11:15:53;27.50;53.20
11762;DHT22;5938;47.098;15.474;2024-03-23T11:19:59;27.10;51.70
11762;DHT22;5938;47.098;15.474;2024-03-23T11:24:13;28.20;51.40
11762;DHT22;5938;47.098;15.474;2024-03-23T11:28:16;27.50;51.20
11762;DHT22;5938;47.098;15.474;2024-03-23T11:32:19;27.40;50.80
11762;DHT22;5938;47.098;15.474;2024-03-23T11:36:32;28.20;50.20
11762;DHT22;5938;47.098;15.474;2024-03-23T11:40:36;30.10;48.20
11762;DHT22;5938;47.098;15.474;2024-03-23T11:44:39;30.60;46.10
11762;DHT22;5938;47.098;15.474;2024-03-23T11:48:49;30.60;45.50
11762;DHT22;5938;47.098;15.474;2024-03-23T11:52:54;31.10;43.70
11762;DHT22;5938;47.098;15.474;2024-03-23T11:57:08;30.10;45.80
11762;DHT22;5938;47.098;15.474;2024-03-23T12:01:11;30.60;46.10
11762;DHT22;5938;47.098;15.474;2024-03-23T12:05:14;30.90;44.40
11762;DHT22;5938;47.098;15.474;2024-03-23T12:09:19;30.90;43.30
11762;DHT22;5938;47.098;15.474;2024-03-23T12:13:22;30.50;45.20
11762;DHT22;5938;47.098;15.474;2024-03-23T12:17:25;32.80;41.80
11762;DHT22;5938;47.098;15.474;2024-03-23T12:21:27;32.70;39.50
11762;DHT22;5938;47.098;15.474;2024-03-23T12:25:31;33.30;40.30
11762;DHT22;5938;47.098;15.474;2024-03-23T12:29:34;31.80;41.20
11762;DHT22;5938;47.098;15.474;2024-03-23T12:33:37;31.70;41.70
11762;DHT22;5938;47.098;15.474;2024-03-23T12:37:39;30.60;43.60
11762;DHT22;5938;47.098;15.474;2024-03-23T12:41:43;30.40;43.80
11762;DHT22;5938;47.098;15.474;2024-03-23T12:45:47;30.40;44.60
11762;DHT22;5938;47.098;15.474;2024-03-23T12:49:51;31.70;43.60
11762;DHT22;5938;47.098;15.474;2024-03-23T12:53:54;31.00;43.10
11762;DHT22;5938;47.098;15.474;2024-03-23T12:58:01;31.30;42.00
11762;DHT22;5938;47.098;15.474;2024-03-23T13:02:05;31.40;41.50
11762;DHT22;5938;47.098;15.474;2024-03-23T13:06:08;31.60;42.10
11762;DHT22;5938;47.098;15.474;2024-03-23T13:10:13;32.70;40.10
11762;DHT22;5938;47.098;15.474;2024-03-23T13:14:20;33.60;40.60
11762;DHT22;5938;47.098;15.474;2024-03-23T13:18:25;33.50;39.10
11762;DHT22;5938;47.098;15.474;2024-03-23T13:22:28;34.50;37.10
11762;DHT22;5938;47.098;15.474;2024-03-23T13:26:31;34.00;37.80
11762;DHT22;5938;47.098;15.474;2024-03-23T13:30:35;34.00;39.30
11762;DHT22;5938;47.098;15.474;2024-03-23T13:34:37;33.10;40.00
11762;DHT22;5938;47.098;15.474;2024-03-23T13:38:39;32.10;40.40
11762;DHT22;5938;47.098;15.474;2024-03-23T13:42:42;32.20;40.30
11762;DHT22;5938;47.098;15.474;2024-03-23T13:46:46;32.00;39.50
11762;DHT22;5938;47.098;15.474;2024-03-23T13:50:57;32.30;39.50
11762;DHT22;5938;47.098;15.474;2024-03-23T13:55:02;31.80;41.10
11762;DHT22;5938;47.098;15.474;2024-03-23T13:59:05;30.70;42.30
11762;DHT22;5938;47.098;15.474;2024-03-23T14:03:09;28.30;46.30
11762;DHT22;5938;47.098;15.474;2024-03-23T14:07:12;25.10;51.70
11762;DHT22;5938;47.098;15.474;2024-03-23T14:11:18;23.70;53.50
11762;DHT22;5938;47.098;15.474;2024-03-23T14:15:21;24.60;53.20
11762;DHT22;5938;47.098;15.474;2024-03-23T14:19:25;27.10;51.20
11762;DHT22;5938;47.098;15.474;2024-03-23T14:23:31;29.40;46.70
11762;DHT22;5938;47.098;15.474;2024-03-23T14:27:35;28.60;47.60
11762;DHT22;5938;47.098;15.474;2024-03-23T14:31:38;27.70;49.40
11762;DHT22;5938;47.098;15.474;2024-03-23T14:35:42;28.70;47.30
11762;DHT22;5938;47.098;15.474;2024-03-23T14:39:45;30.10;45.20
11762;DHT22;5938;47.098;15.474;2024-03-23T14:43:50;30.30;44.10
11762;DHT22;5938;47.098;15.474;2024-03-23T14:47:55;27.60;48.00
11762;DHT22;5938;47.098;15.474;2024-03-23T14:52:00;25.10;53.10
11762;DHT22;5938;47.098;15.474;2024-03-23T14:56:05;23.30;55.50
11762;DHT22;5938;47.098;15.474;2024-03-23T15:00:09;21.90;58.10
11762;DHT22;5938;47.098;15.474;2024-03-23T15:04:13;21.00;60.90
11762;DHT22;5938;47.098;15.474;2024-03-23T15:08:18;20.40;60.30
11762;DHT22;5938;47.098;15.474;2024-03-23T15:12:20;20.20;63.90
11762;DHT22;5938;47.098;15.474;2024-03-23T15:16:23;19.80;62.90
11762;DHT22;5938;47.098;15.474;2024-03-23T15:20:27;19.00;66.30
11762;DHT22;5938;47.098;15.474;2024-03-23T15:24:31;17.60;68.70
11762;DHT22;5938;47.098;15.474;2024-03-23T15:28:36;16.80;71.70
11762;DHT22;5938;47.098;15.474;2024-03-23T15:33:08;16.30;72.90
11762;DHT22;5938;47.098;15.474;2024-03-23T15:37:14;15.40;76.40
11762;DHT22;5938;47.098;15.474;2024-03-23T15:41:21;14.70;76.60
11762;DHT22;5938;47.098;15.474;2024-03-23T15:45:31;14.10;78.60
11762;DHT22;5938;47.098;15.474;2024-03-23T15:49:43;13.70;79.70
11762;DHT22;5938;47.098;15.474;2024-03-23T15:53:46;13.20;80.40
11762;DHT22;5938;47.098;15.474;2024-03-23T15:57:50;12.80;81.20
11762;DHT22;5938;47.098;15.474;2024-03-23T16:01:53;12.40;81.60
11762;DHT22;5938;47.098;15.474;2024-03-23T16:05:57;11.90;80.90
11762;DHT22;5938;47.098;15.474;2024-03-23T16:10:05;11.40;81.60
11762;DHT22;5938;47.098;15.474;2024-03-23T16:14:12;11.00;83.50
11762;DHT22;5938;47.098;15.474;2024-03-23T16:18:14;10.70;85.40
11762;DHT22;5938;47.098;15.474;2024-03-23T16:22:17;10.10;88.90
11762;DHT22;5938;47.098;15.474;2024-03-23T16:26:20;9.50;92.50
11762;DHT22;5938;47.098;15.474;2024-03-23T16:30:24;8.80;94.70
11762;DHT22;5938;47.098;15.474;2024-03-23T16:34:29;8.20;98.00
11762;DHT22;5938;47.098;15.474;2024-03-23T16:38:50;7.80;98.20
11762;DHT22;5938;47.098;15.474;2024-03-23T16:42:53;7.40;99.90
11762;DHT22;5938;47.098;15.474;2024-03-23T16:46:58;7.00;99.90
11762;DHT22;5938;47.098;15.474;2024-03-23T16:51:02;6.70;99.90
11762;DHT22;5938;47.098;15.474;2024-03-23T16:55:05;6.60;99.90
11762;DHT22;5938;47.098;15.474;2024-03-23T16:59:11;6.50;99.90
11762;DHT22;5938;47.098;15.474;2024-03-23T17:03:21;6.30;99.90
11762;DHT22;5938;47.098;15.474;2024-03-23T17:07:24;6.20;99.90
11762;DHT22;5938;47.098;15.474;2024-03-23T17:11:31;6.00;99.90
11762;DHT22;5938;47.098;15.474;2024-03-23T17:15:48;5.90;99.90
11762;DHT22;5938;47.098;15.474;2024-03-23T17:20:01;5.90;99.90
11762;DHT22;5938;47.098;15.474;2024-03-23T17:24:11;5.90;99.90
11762;DHT22;5938;47.098;15.474;2024-03-23T17:28:14;5.90;99.90
11762;DHT22;5938;47.098;15.474;2024-03-23T17:32:17;6.00;99.90
11762;DHT22;5938;47.098;15.474;2024-03-23T17:36:22;6.00;99.90
11762;DHT22;5938;47.098;15.474;2024-03-23T17:40:32;6.10;99.90
11762;DHT22;5938;47.098;15.474;2024-03-23T17:44:35;6.10;99.90
11762;DHT22;5938;47.098;15.474;2024-03-23T17:48:38;6.10;99.90
11762;DHT22;5938;47.098;15.474;2024-03-23T17:52:42;6.20;99.90
11762;DHT22;5938;47.098;15.474;2024-03-23T17:56:46;6.20;99.90
11762;DHT22;5938;47.098;15.474;2024-03-23T18:00:49;6.40;99.90
11762;DHT22;5938;47.098;15.474;2024-03-23T18:04:51;6.40;99.90
11762;DHT22;5938;47.098;15.474;2024-03-23T18:08:56;6.30;99.90
11762;DHT22;5938;47.098;15.474;2024-03-23T18:13:00;6.40;99.90
11762;DHT22;5938;47.098;15.474;2024-03-23T18:17:03;6.40;99.90
11762;DHT22;5938;47.098;15.474;2024-03-23T18:21:06;6.30;99.90
11762;DHT22;5938;47.098;15.474;2024-03-23T18:25:11;6.50;99.90
11762;DHT22;5938;47.098;15.474;2024-03-23T18:29:20;6.50;99.90
11762;DHT22;5938;47.098;15.474;2024-03-23T18:33:34;6.50;99.90
11762;DHT22;5938;47.098;15.474;2024-03-23T18:37:37;6.40;99.90
11762;DHT22;5938;47.098;15.474;2024-03-23T18:41:42;6.30;99.90
11762;DHT22;5938;47.098;15.474;2024-03-23T18:45:48;6.30;99.90
11762;DHT22;5938;47.098;15.474;2024-03-23T18:49:51;6.40;99.90
11762;DHT22;5938;47.098;15.474;2024-03-23T18:53:54;6.30;99.90
11762;DHT22;5938;47.098;15.474;2024-03-23T18:58:02;6.40;99.90
11762;DHT22;5938;47.098;15.474;2024-03-23T19:02:08;6.40;99.90
11762;DHT22;5938;47.098;15.474;2024-03-23T19:06:11;6.40;99.90
11762;DHT22;5938;47.098;15.474;2024-03-23T19:10:20;6.50;99.90
11762;DHT22;5938;47.098;15.474;2024-03-23T19:14:24;6.50;99.90
11762;DHT22;5938;47.098;15.474;2024-03-23T19:18:28;6.50;99.90
11762;DHT22;5938;47.098;15.474;2024-03-23T19:22:34;6.50;99.90
11762;DHT22;5938;47.098;15.474;2024-03-23T19:27:09;6.60;99.90
11762;DHT22;5938;47.098;15.474;2024-03-23T19:31:16;6.70;99.90
11762;DHT22;5938;47.098;15.474;2024-03-23T19:35:20;6.70;99.90
11762;DHT22;5938;47.098;15.474;2024-03-23T19:39:27;6.90;99.90
11762;DHT22;5938;47.098;15.474;2024-03-23T19:43:41;7.10;99.60
11762;DHT22;5938;47.098;15.474;2024-03-23T19:47:49;7.20;99.90
11762;DHT22;5938;47.098;15.474;2024-03-23T19:51:54;7.10;99.90
11762;DHT22;5938;47.098;15.474;2024-03-23T19:55:58;7.10;99.90
11762;DHT22;5938;47.098;15.474;2024-03-23T20:00:01;7.10;99.90
11762;DHT22;5938;47.098;15.474;2024-03-23T20:04:06;7.00;99.50
11762;DHT22;5938;47.098;15.474;2024-03-23T20:08:09;7.10;99.90
11762;DHT22;5938;47.098;15.474;2024-03-23T20:12:12;7.10;99.50
11762;DHT22;5938;47.098;15.474;2024-03-23T20:16:15;7.20;99.90
11762;DHT22;5938;47.098;15.474;2024-03-23T20:20:19;7.10;99.90
11762;DHT22;5938;47.098;15.474;2024-03-23T20:24:22;6.60;99.90
11762;DHT22;5938;47.098;15.474;2024-03-23T20:29:28;6.00;99.90
11762;DHT22;5938;47.098;15.474;2024-03-23T20:33:34;5.40;99.90
11762;DHT22;5938;47.098;15.474;2024-03-23T20:37:45;5.20;99.90
11762;DHT22;5938;47.098;15.474;2024-03-23T20:41:47;5.20;99.90
11762;DHT22;5938;47.098;15.474;2024-03-23T20:45:56;5.30;99.90
11762;DHT22;5938;47.098;15.474;2024-03-23T20:50:02;5.20;99.90
11762;DHT22;5938;47.098;15.474;2024-03-23T20:54:13;5.00;99.90
11762;DHT22;5938;47.098;15.474;2024-03-23T20:58:19;4.90;99.90
11762;DHT22;5938;47.098;15.474;2024-03-23T21:02:23;4.60;99.90
11762;DHT22;5938;47.098;15.474;2024-03-23T21:06:28;4.60;99.90
11762;DHT22;5938;47.098;15.474;2024-03-23T21:10:34;4.50;99.90
11762;DHT22;5938;47.098;15.474;2024-03-23T21:14:37;4.20;99.90
11762;DHT22;5938;47.098;15.474;2024-03-23T21:18:40;4.20;99.90
11762;DHT22;5938;47.098;15.474;2024-03-23T21:22:43;4.00;99.90
11762;DHT22;5938;47.098;15.474;2024-03-23T21:26:47;3.80;99.90
11762;DHT22;5938;47.098;15.474;2024-03-23T21:30:50;3.70;99.90
11762;DHT22;5938;47.098;15.474;2024-03-23T21:34:52;3.70;99.90
11762;DHT22;5938;47.098;15.474;2024-03-23T21:38:55;3.70;99.90
11762;DHT22;5938;47.098;15.474;2024-03-23T21:43:00;3.70;99.90
11762;DHT22;5938;47.098;15.474;2024-03-23T21:47:02;3.60;99.90
11762;DHT22;5938;47.098;15.474;2024-03-23T21:51:05;3.50;99.90
11762;DHT22;5938;47.098;15.474;2024-03-23T21:55:08;3.50;99.90
11762;DHT22;5938;47.098;15.474;2024-03-23T21:59:13;3.30;99.90
11762;DHT22;5938;47.098;15.474;2024-03-23T22:03:15;3.30;99.90
11762;DHT22;5938;47.098;15.474;2024-03-23T22:07:18;3.20;99.90
11762;DHT22;5938;47.098;15.474;2024-03-23T22:11:19;3.10;99.90
11762;DHT22;5938;47.098;15.474;2024-03-23T22:15:23;3.10;99.90
11762;DHT22;5938;47.098;15.474;2024-03-23T22:19:25;3.10;99.90
11762;DHT22;5938;47.098;15.474;2024-03-23T22:23:29;3.20;99.90
11762;DHT22;5938;47.098;15.474;2024-03-23T22:27:32;3.40;99.90
11762;DHT22;5938;47.098;15.474;2024-03-23T22:31:36;3.40;99.90
11762;DHT22;5938;47.098;15.474;2024-03-23T22:35:44;3.50;99.90
11762;DHT22;5938;47.098;15.474;2024-03-23T22:39:45;3.40;99.90
11762;DHT22;5938;47.098;15.474;2024-03-23T22:43:48;3.60;99.90
11762;DHT22;5938;47.098;15.474;2024-03-23T22:47:53;3.70;99.90
11762;DHT22;5938;47.098;15.474;2024-03-23T22:51:56;3.70;99.90
11762;DHT22;5938;47.098;15.474;2024-03-23T22:55:58;3.70;99.90
11762;DHT22;5938;47.098;15.474;2024-03-23T23:00:02;3.80;99.90
11762;DHT22;5938;47.098;15.474;2024-03-23T23:04:11;3.80;99.90
11762;DHT22;5938;47.098;15.474;2024-03-23T23:08:13;3.80;99.90
11762;DHT22;5938;47.098;15.474;2024-03-23T23:12:17;4.00;99.90
11762;DHT22;5938;47.098;15.474;2024-03-23T23:16:19;4.00;99.90
11762;DHT22;5938;47.098;15.474;2024-03-23T23:20:23;4.00;99.90
11762;DHT22;5938;47.098;15.474;2024-03-23T23:24:26;4.00;99.90
11762;DHT22;5938;47.098;15.474;2024-03-23T23:28:28;3.90;99.90
11762;DHT22;5938;47.098;15.474;2024-03-23T23:32:31;4.00;99.90
11762;DHT22;5938;47.098;15.474;2024-03-23T23:36:35;4.00;99.90
11762;DHT22;5938;47.098;15.474;2024-03-23T23:40:37;4.10;99.90
11762;DHT22;5938;47.098;15.474;2024-03-23T23:44:40;4.00;99.90
11762;DHT22;5938;47.098;15.474;2024-03-23T23:48:42;4.00;99.90
11762;DHT22;5938;47.098;15.474;2024-03-23T23:52:46;4.10;99.90
11762;DHT22;5938;47.098;15.474;2024-03-23T23:56:49;4.10;99.90
